Terminal Aerodrome Forecast
Issued by NWS

Home | Current Version | Previous Version | Text Only | Print | Product List | Glossary On
Versions: 1 2 3 4 5 6 7 8 9 10 11 12 13 14 15 16 17 18 19 20 21 22 23 24 25 26 27 28 29 30 31 32 33 34 35 36 37 38 39 40 41 42 43 44 45 46 47 48 49 50
000
FTUS44 KHGX 271236 AAA
TAFIAH
TAF AMD
KIAH 271236Z 2713/2818 06006KT P6SM FEW010 SCT035 SCT060
     FM271400 08008KT P6SM SCT040 BKN100
     FM271800 06009KT P6SM VCSH SCT040 BKN100
     FM272100 10009KT P6SM BKN040
     FM280300 01005KT P6SM SCT010
     FM281200 34014KT P6SM SCT010=

USA.gov is the U.S. government's official web portal to all federal, state and local government web resources and services.